Latest Weather Observations for Alva Beach

IDQ60801

Issued at 4:32 pm EST Thursday 23 February 2017 (issued every 30 minutes, with the page automatically refreshed every 10 minutes)

About weather observations | Map of weather stations | Latest weather observations for QLD | Other Formats
Station Details ID: 033295 Name: ALVA BEACH Lat: -19.46 Lon: 147.48 Height: 7.5 m
Data from the previous 72 hours. | See also: Recent months at Alva Beach
Date/Time
EST
Temp
°C
App
Temp
°C
Dew
Point
°C
Rel
Hum
%
Delta-T
°C
Wind Press
QNH
hPa
Press
MSL
hPa
Rain since
9am
mm
Dir  Spd
km/h
Gust
km/h
Spd
kts
Gust
kts
23/04:00pm 29.2 29.9 22.2 66 4.7 ENE 22 32 12 17 1011.4 1011.4 0.2
23/03:30pm 29.7 31.0 22.7 66 4.8 E 20 32 11 17 1011.7 1011.7 0.2
23/03:00pm 29.8 31.2 22.8 66 4.8 E 20 30 11 16 1011.9 1011.9 0.2
23/02:30pm 30.2 30.4 23.4 67 4.7 E 28 41 15 22 1011.9 1011.9 0.2
23/02:00pm 30.0 32.2 23.9 70 4.2 E 19 30 10 16 1012.1 1012.1 0.2
23/01:30pm 29.1 29.9 23.1 70 4.1 E 24 39 13 21 1012.3 1012.3 0.2
23/01:00pm 29.5 31.1 23.2 69 4.3 ESE 20 33 11 18 1012.8 1012.8 0.2
23/12:30pm 29.4 31.2 23.6 71 4.0 E 20 32 11 17 1013.3 1013.3 0.2
23/12:00pm 30.0 31.9 24.4 72 3.9 ENE 22 32 12 17 1013.7 1013.7 0.2
23/11:30am 27.7 28.9 24.5 83 2.2 ENE 26 35 14 19 1014.2 1014.2 0.2
23/11:00am 27.2 27.6 22.4 75 3.2 E 24 44 13 24 1014.5 1014.5 0.0
23/10:56am 28.1 29.3 22.1 70 4.0 E 19 43 10 23 1014.5 1014.5 0.0
23/10:30am 29.5 32.2 23.4 69 4.2 ESE 15 22 8 12 1014.5 1014.5 0.0
23/10:00am 28.8 31.2 23.7 74 3.5 E 17 28 9 15 1014.6 1014.6 0.0
23/09:30am 28.1 30.7 22.6 72 3.7 ESE 13 28 7 15 1014.6 1014.6 0.0
23/09:00am 28.6 31.7 23.5 74 3.5 SE 13 22 7 12 1014.6 1014.6 8.4
23/08:30am 27.2 30.6 24.1 83 2.1 ESE 13 26 7 14 1014.4 1014.4 8.4
23/08:00am 26.0 30.9 24.6 92 1.0 SSE 7 11 4 6 1014.2 1014.2 8.4
23/07:30am 25.4 29.7 24.2 93 0.8 S 9 13 5 7 1013.9 1013.9 8.0
23/07:00am 25.1 29.7 24.1 94 0.7 S 7 13 4 7 1013.7 1013.7 8.0
23/06:30am 24.9 29.6 23.9 94 0.7 SSW 6 9 3 5 1013.3 1013.3 8.0
23/06:00am 25.0 29.4 23.8 93 0.8 S 7 11 4 6 1013.0 1013.0 8.0
23/05:30am 25.4 29.4 24.4 94 0.7 SE 11 24 6 13 1012.8 1012.8 8.0
23/05:00am 25.0 29.4 23.8 93 0.8 WSW 7 11 4 6 1012.5 1012.5 8.0
23/04:30am 24.8 28.7 23.6 93 0.8 S 9 19 5 10 1012.4 1012.4 6.6
23/04:00am 24.7 28.8 23.3 92 1.0 SW 7 9 4 5 1012.0 1012.0 6.6
23/03:30am 25.2 30.1 23.6 91 1.1 SW 4 7 2 4 1012.0 1012.0 6.6
23/03:00am 26.1 29.6 22.8 82 2.2 SSE 9 22 5 12 1012.0 1012.0 2.8
23/02:30am 26.4 29.8 22.7 80 2.5 SE 9 22 5 12 1012.3 1012.3 2.8
23/02:00am 27.4 29.0 22.8 76 3.1 ENE 19 24 10 13 1012.5 1012.5 2.4
23/01:30am 27.0 28.6 22.8 78 2.8 E 19 26 10 14 1012.8 1012.8 2.4
23/01:00am 25.9 28.9 22.6 82 2.2 E 11 19 6 10 1013.1 1013.1 2.4
23/12:30am 26.7 27.1 21.0 71 3.8 ENE 20 30 11 16 1013.3 1013.3 1.8
23/12:00am 25.7 25.4 21.1 76 3.0 ENE 24 44 13 24 1013.6 1013.6 1.8
 
Date/Time
EST
Temp
°C
App
Temp
°C
Dew
Point
°C
Rel
Hum
%
Delta-T
°C
Wind Press
QNH
hPa
Press
MSL
hPa
Rain since
9am
mm
Dir  Spd
km/h
Gust
km/h
Spd
kts
Gust
kts
22/11:30pm 27.7 29.4 22.4 73 3.6 E 17 32 9 17 1013.8 1013.8 0.2
22/11:00pm 28.2 29.5 22.7 72 3.7 ENE 20 26 11 14 1013.8 1013.8 0.2
22/10:30pm 27.7 29.2 23.1 76 3.1 E 20 30 11 16 1013.8 1013.8 0.2
22/10:00pm 28.8 29.2 22.5 68 4.3 ENE 24 35 13 19 1013.6 1013.6 0.0
22/09:30pm 28.8 29.8 23.5 73 3.6 ENE 24 32 13 17 1013.3 1013.3 0.0
22/09:00pm 28.9 29.7 23.1 71 4.0 ENE 24 32 13 17 1013.0 1013.0 0.0
22/08:30pm 28.8 28.9 22.5 68 4.3 ENE 26 35 14 19 1012.6 1012.6 0.0
22/08:00pm 28.9 29.3 23.1 71 4.0 ENE 26 35 14 19 1012.2 1012.2 0.0
22/07:30pm 28.6 28.8 22.8 71 3.9 ENE 26 35 14 19 1011.9 1011.9 0.0
22/07:00pm 29.1 29.9 23.1 70 4.1 ENE 24 33 13 18 1011.7 1011.7 0.0
22/06:30pm 29.1 29.9 23.1 70 4.1 ENE 24 33 13 18 1011.2 1011.2 0.0
22/06:00pm 29.2 29.6 23.2 70 4.1 ENE 26 33 14 18 1011.0 1011.0 0.0
22/05:30pm 29.5 30.2 23.0 68 4.4 ENE 24 33 13 18 1010.7 1010.7 0.0
22/05:00pm 29.7 30.6 23.4 69 4.3 ENE 24 35 13 19 1010.4 1010.4 0.0
22/04:30pm 29.9 30.4 22.6 65 5.0 ENE 24 32 13 17 1010.5 1010.5 0.0
22/04:00pm 30.2 30.9 22.9 65 5.0 ENE 24 32 13 17 1010.6 1010.6 0.0
22/03:30pm 30.4 31.4 22.8 64 5.2 ENE 22 30 12 16 1010.9 1010.9 0.0
22/03:00pm 30.3 30.7 21.7 60 5.8 ENE 22 30 12 16 1011.2 1011.2 0.0
22/02:30pm 30.4 30.7 22.3 62 5.5 ENE 24 32 13 17 1011.4 1011.4 0.0
22/02:00pm 30.3 30.8 21.9 60 5.7 ENE 22 30 12 16 1011.4 1011.4 0.0
22/01:30pm 30.4 31.5 22.0 60 5.7 ENE 19 28 10 15 1011.7 1011.7 0.0
22/01:00pm 30.7 31.6 22.0 59 5.9 E 20 30 11 16 1012.1 1012.1 0.0
22/12:30pm 30.0 31.3 22.4 63 5.2 ENE 19 28 10 15 1012.4 1012.4 0.0
22/12:00pm 31.6 34.5 23.2 61 5.8 E 13 20 7 11 1012.8 1012.8 0.0
22/11:30am 31.0 32.5 22.0 58 6.1 E 17 26 9 14 1012.9 1012.9 0.0
22/11:00am 31.3 34.7 23.4 63 5.5 E 11 19 6 10 1013.2 1013.2 0.0
22/10:30am 30.7 33.0 22.0 59 5.9 E 13 20 7 11 1013.5 1013.5 0.0
22/10:00am 30.7 33.3 22.0 59 5.9 E 11 19 6 10 1013.7 1013.7 0.0
22/09:30am 30.3 32.5 21.9 60 5.7 E 13 20 7 11 1013.7 1013.7 0.0
22/09:00am 30.4 33.1 22.8 64 5.2 ESE 13 20 7 11 1013.7 1013.7 3.0
22/08:30am 30.0 33.3 23.2 67 4.7 E 11 17 6 9 1013.4 1013.4 3.0
22/08:00am 28.7 32.6 22.9 71 4.0 ESE 7 17 4 9 1013.2 1013.2 3.0
22/07:30am 28.0 31.4 22.7 73 3.6 SE 9 20 5 11 1013.0 1013.0 3.0
22/07:00am 26.2 31.3 24.1 88 1.4 SSE 4 7 2 4 1012.7 1012.7 3.0
22/06:30am 25.0 29.1 23.2 90 1.2 S 7 9 4 5 1012.4 1012.4 3.0
22/06:00am 24.7 28.9 23.1 91 1.1 SSE 6 9 3 5 1012.2 1012.2 3.0
22/05:30am 24.8 28.9 23.2 91 1.1 S 7 9 4 5 1012.2 1012.2 3.0
22/05:00am 25.0 29.1 23.2 90 1.2 S 7 7 4 4 1012.1 1012.1 3.0
22/04:30am 25.6 29.5 22.5 83 2.1 S 6 7 3 4 1012.0 1012.0 3.0
22/04:00am 26.0 30.9 22.3 80 2.5 CALM 0 7 0 4 1012.0 1012.0 3.0
22/03:30am 26.4 30.1 22.5 79 2.6 ENE 7 11 4 6 1011.9 1011.9 3.0
22/03:00am 26.5 30.8 22.6 79 2.6 ENE 4 9 2 5 1012.2 1012.2 3.0
22/02:30am 26.9 30.4 22.1 75 3.2 NE 7 11 4 6 1012.4 1012.4 3.0
22/02:00am 27.3 30.1 22.3 74 3.4 NE 11 13 6 7 1012.7 1012.7 3.0
22/01:30am 27.5 30.2 22.2 73 3.6 NE 11 15 6 8 1013.2 1013.2 3.0
22/01:00am 27.7 30.2 22.4 73 3.6 NE 13 17 7 9 1013.4 1013.4 3.0
22/12:30am 27.7 29.9 22.6 74 3.5 NE 15 17 8 9 1013.6 1013.6 3.0
22/12:00am 27.7 29.2 22.0 71 3.8 NE 17 20 9 11 1013.7 1013.7 3.0
 
Date/Time
EST
Temp
°C
App
Temp
°C
Dew
Point
°C
Rel
Hum
%
Delta-T
°C
Wind Press
QNH
hPa
Press
MSL
hPa
Rain since
9am
mm
Dir  Spd
km/h
Gust
km/h
Spd
kts
Gust
kts
21/11:30pm 28.0 29.1 22.0 70 4.0 NE 19 22 10 12 1013.9 1013.9 3.0
21/11:00pm 28.1 28.8 21.6 68 4.3 NE 20 24 11 13 1014.0 1014.0 3.0
21/10:30pm 28.2 28.6 21.7 68 4.4 NE 22 28 12 15 1014.1 1014.1 3.0
21/10:00pm 28.2 28.4 22.0 69 4.2 NE 24 30 13 16 1013.8 1013.8 3.0
21/09:30pm 28.4 28.4 22.4 70 4.1 NE 26 32 14 17 1013.6 1013.6 3.0
21/09:00pm 28.3 28.7 22.5 71 3.9 ENE 24 28 13 15 1013.2 1013.2 3.0
21/08:30pm 28.5 29.3 22.5 70 4.1 ENE 22 26 12 14 1012.9 1012.9 3.0
21/08:00pm 28.5 29.3 22.5 70 4.1 ENE 22 28 12 15 1012.6 1012.6 3.0
21/07:30pm 28.5 29.2 23.0 72 3.8 ENE 24 30 13 16 1012.2 1012.2 3.0
21/07:00pm 28.4 28.3 22.9 72 3.7 ENE 28 32 15 17 1011.6 1011.6 3.0
21/06:30pm 28.6 29.0 23.1 72 3.8 ENE 26 32 14 17 1011.2 1011.2 3.0
21/06:00pm 28.8 29.6 23.2 71 3.8 ENE 24 28 13 15 1011.3 1011.3 3.0
21/05:30pm 28.9 30.0 23.6 73 3.6 NE 24 28 13 15 1011.1 1011.1 3.0
21/05:00pm 29.1 30.3 23.8 73 3.7 ENE 24 28 13 15 1010.7 1010.7 3.0
21/04:30pm 29.5 31.2 24.1 72 3.7 ENE 22 28 12 15 1010.8 1010.8 3.0
21/04:00pm 29.8 31.2 23.5 69 4.3 ENE 22 26 12 14 1010.9 1010.9 3.0
21/03:30pm 29.5 31.0 24.4 74 3.6 NE 24 30 13 16 1010.7 1010.7 3.0
21/03:00pm 30.2 32.2 24.6 72 3.9 NE 22 28 12 15 1010.8 1010.8 2.8
21/02:30pm 29.3 32.3 24.6 76 3.3 NE 17 22 9 12 1011.1 1011.1 2.8
21/02:00pm 28.6 31.8 24.4 78 2.9 NE 15 19 8 10 1011.3 1011.3 2.8
21/01:30pm 27.2 31.5 23.7 81 2.4 ENE 7 11 4 6 1011.7 1011.7 2.8
21/01:00pm 27.9 29.7 23.3 76 3.1 NNE 19 22 10 12 1012.2 1012.2 0.0
21/12:30pm 27.8 29.7 22.1 71 3.8 NNE 15 32 8 17 1012.5 1012.5 0.0
21/12:00pm 28.2 32.2 23.8 77 3.0 N 9 13 5 7 1012.7 1012.7 0.0
21/11:30am 29.2 33.0 24.1 74 3.5 ENE 11 17 6 9 1013.0 1013.0 0.0
21/11:00am 28.2 31.8 23.8 77 3.0 ENE 11 17 6 9 1013.1 1013.1 0.0
21/10:30am 28.4 32.8 23.8 76 3.2 ENE 7 13 4 7 1013.2 1013.2 0.0
21/10:00am 27.8 31.7 23.6 78 2.9 E 9 15 5 8 1013.3 1013.3 0.0
21/09:30am 27.8 32.7 23.6 78 2.9 ESE 4 7 2 4 1013.1 1013.1 0.0
21/09:00am 27.5 32.7 23.5 79 2.7 ENE 2 6 1 3 1013.1 1013.1 4.8
21/08:30am 26.8 29.9 22.8 79 2.7 ENE 11 17 6 9 1012.6 1012.6 4.8
21/08:00am 26.1 28.0 23.4 85 1.8 NE 19 28 10 15 1012.6 1012.6 4.6
21/07:30am 25.0 29.1 22.9 88 1.4 S 6 9 3 5 1012.4 1012.4 4.4
21/07:00am 27.1 29.0 22.7 77 3.0 NNE 17 22 9 12 1011.8 1011.8 0.2
21/06:30am 26.0 29.9 22.5 81 2.4 WNW 6 15 3 8 1011.4 1011.4 0.2
21/06:00am 26.4 30.0 22.0 77 2.9 WSW 6 11 3 6 1011.0 1011.0 0.2
21/05:30am 26.8 32.8 24.8 89 1.4 S 2 6 1 3 1010.9 1010.9 0.2
21/05:00am 26.7 31.5 24.5 88 1.5 S 7 7 4 4 1010.6 1010.6 0.2
21/04:30am 26.7 32.1 23.2 81 2.4 CALM 0 0 0 0 1010.6 1010.6 0.2
21/04:00am 27.4 32.5 23.4 79 2.7 N 2 7 1 4 1010.2 1010.2 0.2
21/03:30am 27.5 32.4 23.7 80 2.6 NNW 4 7 2 4 1010.1 1010.1 0.2
21/03:00am 27.4 32.1 23.4 79 2.7 NNW 4 6 2 3 1010.0 1010.0 0.2
21/02:30am 27.5 32.6 23.3 78 2.9 NNW 2 6 1 3 1010.0 1010.0 0.2
21/02:00am 27.6 32.3 23.4 78 2.9 NNW 4 9 2 5 1009.9 1009.9 0.2
21/01:30am 27.8 32.1 23.6 78 2.9 NW 7 11 4 6 1010.2 1010.2 0.2
21/01:00am 27.7 31.7 23.1 76 3.1 NNW 7 11 4 6 1010.5 1010.5 0.2
21/12:30am 27.9 31.9 23.1 75 3.3 NNW 7 11 4 6 1010.8 1010.8 0.2
21/12:00am 27.8 31.8 22.7 74 3.5 NNW 6 9 3 5 1010.8 1010.8 0.2
 
Date/Time
EST
Temp
°C
App
Temp
°C
Dew
Point
°C
Rel
Hum
%
Delta-T
°C
Wind Press
QNH
hPa
Press
MSL
hPa
Rain since
9am
mm
Dir  Spd
km/h
Gust
km/h
Spd
kts
Gust
kts
20/11:30pm 28.2 31.9 23.3 75 3.4 N 9 17 5 9 1011.0 1011.0 0.2
20/11:00pm 28.2 30.7 23.1 74 3.5 N 15 19 8 10 1011.2 1011.2 0.2
20/10:30pm 28.1 31.9 23.5 76 3.2 N 9 15 5 8 1011.5 1011.5 0.2
20/10:00pm 28.2 32.3 22.9 73 3.6 NNW 6 11 3 6 1011.5 1011.5 0.2
20/09:30pm 28.4 31.5 22.9 72 3.7 N 11 17 6 9 1011.2 1011.2 0.2
20/09:00pm 28.4 31.3 23.1 73 3.6 N 13 17 7 9 1010.7 1010.7 0.2
20/08:30pm 28.5 31.2 23.4 74 3.5 NNE 15 19 8 10 1010.5 1010.5 0.2
20/08:00pm 28.5 31.5 23.4 74 3.5 NNE 13 17 7 9 1010.4 1010.4 0.2
20/07:30pm 28.6 31.5 23.1 72 3.8 NNE 13 17 7 9 1010.3 1010.3 0.2
20/07:00pm 28.7 31.6 23.1 71 3.8 NNE 13 17 7 9 1009.7 1009.7 0.2
20/06:30pm 28.9 31.4 23.1 71 4.0 NNE 15 19 8 10 1009.1 1009.1 0.2
20/06:00pm 29.2 32.1 23.2 70 4.1 N 13 19 7 10 1008.8 1008.8 0.2
20/05:30pm 29.5 31.7 23.2 69 4.3 N 17 22 9 12 1008.7 1008.7 0.2
20/05:00pm 29.7 31.7 22.9 67 4.7 NNE 17 20 9 11 1008.4 1008.4 0.2

Other Formats:

Comma delimited format used in spreadsheet applications
http://www.bom.gov.au/fwo/IDQ60801/IDQ60801.95296.axf

JavaScript Object Notation format (JSON) in row-major order
http://www.bom.gov.au/fwo/IDQ60801/IDQ60801.95296.json